To NAV CANADA Home Page Login to a new session Search on AWWS site Disclaimer Vers la page française équivalente Tips FAQ What's new on the site To the Forecasts and Observations / NOTAM section To "File a Flight Plan" website Publications and other links Update of the User's profile FIC Telephone Numbers My Weather Data Folder Route Weather Data Regional Weather Data Local Weather Data To the Forecasts and Observations / NOTAM section
Request Generated 10/19/2018 at 15:37:51 UTC . Weather information available at that time is displayed.

METAR/TAF

MEDICINE HAT/AB    (show WxCam)

METAR CYXH 191500Z 19004KT 30SM FEW270 01/M02 A3034 RMK CI1 CI TR SLP294=
METAR CYXH 191400Z 21003KT 30SM FEW270 M02/M04 A3032 RMK CI1 CI TR SLP290=
METAR CYXH 191300Z 21002KT 30SM SKC M02/M04 A3031 RMK SLP285=

TAF CYXH 191147Z 1912/1924 27005KT P6SM SKC
BECMG 1919/1921 34005KT
BECMG 1922/1924 02008KT
RMK FCST BASED ON AUTO OBS. NXT FCST BY 191800Z=
Your time UTC time
Weather data provided by Environment Canada and NAV CANADA